createdAt,value
2022-10-11T00:00:33.744Z,102751.19
2022-10-11T00:03:20.665Z,102760.13
2022-10-11T00:05:48.306Z,102754.69
2022-10-11T00:09:14.766Z,102754.56
2022-10-11T00:12:41.536Z,102757.28
2022-10-11T00:16:08.507Z,102749.84
2022-10-11T00:18:35.950Z,102747.13
2022-10-11T00:21:11.810Z,102741.41
2022-10-11T00:23:39.683Z,102744.94
2022-10-11T00:26:09.490Z,102739.34
2022-10-11T00:28:37.794Z,102726.59
2022-10-11T00:31:10.714Z,102737.50
2022-10-11T00:33:37.527Z,102735.78
2022-10-11T00:36:05.094Z,102727.59
2022-10-11T00:38:32.864Z,102732.28
2022-10-11T00:41:00.472Z,102726.94
2022-10-11T00:43:30.833Z,102721.41
2022-10-11T00:45:58.104Z,102721.41
2022-10-11T00:48:42.379Z,102719.63
2022-10-11T00:51:26.452Z,102718.91
2022-10-11T00:53:54.070Z,102718.06
2022-10-11T00:56:31.434Z,102717.31
2022-10-11T00:59:00.362Z,102711.00
2022-10-11T01:01:27.302Z,102705.56
2022-10-11T01:03:54.886Z,102714.72
2022-10-11T01:06:21.615Z,102712.84
2022-10-11T01:08:50.091Z,102717.31
2022-10-11T01:11:21.792Z,102710.88
2022-10-11T01:13:51.323Z,102715.22
2022-10-11T01:16:36.343Z,102728.72
2022-10-11T01:19:16.413Z,102724.00
2022-10-11T01:22:08.662Z,102719.19
2022-10-11T01:25:11.032Z,102718.19
2022-10-11T01:28:02.752Z,102725.34
2022-10-11T01:30:35.134Z,102721.66
2022-10-11T01:33:35.328Z,102724.25
2022-10-11T01:36:27.967Z,102727.59
2022-10-11T01:39:19.234Z,102725.84
2022-10-11T01:41:56.149Z,102719.44
2022-10-11T01:44:26.965Z,102719.44
2022-10-11T01:46:54.084Z,102724.75
2022-10-11T01:49:21.218Z,102723.84
2022-10-11T01:51:58.404Z,102723.00
2022-10-11T01:55:08.085Z,102724.13
2022-10-11T01:58:03.517Z,102717.06
2022-10-11T02:01:05.073Z,102723.38
2022-10-11T02:03:43.644Z,102720.66
2022-10-11T02:07:13.103Z,102719.78
2022-10-11T02:14:01.600Z,102720.41
2022-10-11T02:17:31.160Z,102713.97
2022-10-11T02:20:19.138Z,102715.47
2022-10-11T02:23:48.228Z,102717.28
2022-10-11T02:27:14.921Z,102711.72
2022-10-11T02:29:46.563Z,102705.56
2022-10-11T02:32:16.133Z,102711.97
2022-10-11T02:35:48.692Z,102708.53
2022-10-11T02:38:22.422Z,102706.66
2022-10-11T02:40:58.217Z,102701.22
2022-10-11T02:44:30.909Z,102692.31
2022-10-11T02:46:59.648Z,102693.44
2022-10-11T02:49:29.106Z,102688.97
2022-10-11T02:51:57.498Z,102687.09
2022-10-11T02:54:25.584Z,102691.69
2022-10-11T02:57:40.372Z,102677.25
2022-10-11T03:00:09.117Z,102678.09
2022-10-11T03:03:24.016Z,102672.66
2022-10-11T03:05:50.787Z,102672.38
2022-10-11T03:08:17.840Z,102668.94
2022-10-11T03:10:44.748Z,102669.66
2022-10-11T03:13:14.889Z,102671.41
2022-10-11T03:15:50.354Z,102667.69
2022-10-11T03:18:27.333Z,102668.41
2022-10-11T03:20:54.489Z,102660.25
2022-10-11T03:23:21.172Z,102653.81
2022-10-11T03:25:47.791Z,102651.09
2022-10-11T03:28:14.868Z,102659.25
2022-10-11T03:30:41.521Z,102660.13
2022-10-11T03:37:06.392Z,102653.81
2022-10-11T03:39:33.273Z,102654.81
2022-10-11T03:41:59.977Z,102651.22
2022-10-11T03:44:26.763Z,102651.22
2022-10-11T03:47:10.199Z,102652.06
2022-10-11T03:50:36.880Z,102651.94
2022-10-11T03:53:04.312Z,102647.63
2022-10-11T03:55:30.947Z,102653.31
2022-10-11T04:01:52.295Z,102657.03
2022-10-11T04:04:18.973Z,102649.88
2022-10-11T04:06:45.735Z,102651.84
2022-10-11T04:10:12.410Z,102649.25
2022-10-11T04:12:56.386Z,102653.09
2022-10-11T04:20:16.773Z,102641.34
2022-10-11T04:23:43.296Z,102646.81
2022-10-11T04:31:00.870Z,102637.13
2022-10-11T04:33:47.581Z,102631.31
2022-10-11T04:36:14.530Z,102637.75
2022-10-11T04:38:41.326Z,102642.19
2022-10-11T04:42:10.956Z,102645.69
2022-10-11T04:45:37.409Z,102640.97
2022-10-11T04:49:04.136Z,102640.81
2022-10-11T04:51:31.044Z,102646.28
2022-10-11T04:53:57.686Z,102644.56
2022-10-11T05:00:17.657Z,102651.59
2022-10-11T05:03:44.159Z,102643.41
2022-10-11T05:07:10.893Z,102647.28
2022-10-11T05:14:18.814Z,102652.38
2022-10-11T05:17:45.242Z,102647.78
2022-10-11T05:21:11.889Z,102660.28
2022-10-11T05:23:47.622Z,102660.28
2022-10-11T05:26:15.325Z,102662.00
2022-10-11T05:28:42.119Z,102662.88
2022-10-11T05:31:08.867Z,102663.97
2022-10-11T05:33:36.154Z,102648.75
2022-10-11T05:36:03.723Z,102651.47
2022-10-11T05:38:30.833Z,102650.75
2022-10-11T05:42:00.385Z,102647.06
2022-10-11T05:45:00.319Z,102645.31
2022-10-11T05:47:27.177Z,102646.03
2022-10-11T05:49:53.804Z,102642.19
2022-10-11T05:52:21.637Z,102638.25
2022-10-11T05:54:49.135Z,102635.25
2022-10-11T05:57:15.998Z,102635.25
2022-10-11T05:59:42.888Z,102638.75
2022-10-11T06:02:13.333Z,102638.63
2022-10-11T06:04:40.349Z,102641.22
2022-10-11T06:07:07.258Z,102648.66
2022-10-11T06:09:36.902Z,102644.94
2022-10-11T06:12:03.909Z,102644.06
2022-10-11T06:14:30.654Z,102646.66
2022-10-11T06:16:57.498Z,102641.97
2022-10-11T06:19:24.240Z,102644.44
2022-10-11T06:21:51.603Z,102649.75
2022-10-11T06:24:18.531Z,102638.72
2022-10-11T06:26:45.188Z,102636.84
2022-10-11T06:29:11.884Z,102634.25
2022-10-11T06:31:38.722Z,102637.00
2022-10-11T06:35:05.152Z,102628.69
2022-10-11T06:38:31.863Z,102635.47
2022-10-11T06:41:42.412Z,102638.41
2022-10-11T06:45:12.925Z,102642.47
2022-10-11T06:52:23.323Z,102631.44
2022-10-11T06:55:49.746Z,102635.63
2022-10-11T07:03:08.854Z,102629.66
2022-10-11T07:06:35.285Z,102623.94
2022-10-11T07:13:53.252Z,102627.72
2022-10-11T07:17:19.683Z,102622.88
2022-10-11T07:20:46.469Z,102628.94
2022-10-11T07:23:13.203Z,102631.38
2022-10-11T07:25:40.044Z,102632.25
2022-10-11T07:28:07.611Z,102634.97
2022-10-11T07:30:35.856Z,102630.63
2022-10-11T07:33:02.539Z,102639.84
2022-10-11T07:35:29.456Z,102637.25
2022-10-11T07:37:56.523Z,102635.50
2022-10-11T07:40:23.273Z,102628.31
2022-10-11T07:42:50.114Z,102629.16
2022-10-11T07:45:16.910Z,102631.78
2022-10-11T07:47:46.516Z,102641.53
2022-10-11T07:50:13.970Z,102640.41
2022-10-11T07:52:40.711Z,102642.88
2022-10-11T07:55:07.906Z,102630.72
2022-10-11T07:57:34.721Z,102635.63
2022-10-11T08:00:01.468Z,102635.09
2022-10-11T08:02:28.701Z,102633.69
2022-10-11T08:04:55.517Z,102639.47
2022-10-11T08:07:22.253Z,102638.94
2022-10-11T08:09:49.150Z,102639.38
2022-10-11T08:12:16.103Z,102637.28
2022-10-11T08:15:42.531Z,102638.72
2022-10-11T08:22:01.778Z,102642.03
2022-10-11T08:24:28.489Z,102639.16
2022-10-11T08:26:55.776Z,102639.06
2022-10-11T08:30:22.558Z,102644.94
2022-10-11T08:33:49.101Z,102650.84
2022-10-11T08:40:15.274Z,102640.84
2022-10-11T08:42:46.765Z,102647.78
2022-10-11T08:45:35.666Z,102643.06
2022-10-11T08:48:34.357Z,102630.88
2022-10-11T08:51:03.682Z,102639.47
2022-10-11T08:53:45.415Z,102639.22
2022-10-11T08:56:16.551Z,102634.34
2022-10-11T08:58:51.917Z,102630.31
2022-10-11T09:01:23.675Z,102630.19
2022-10-11T09:03:51.656Z,102630.31
2022-10-11T09:06:29.120Z,102631.47
2022-10-11T09:09:22.757Z,102633.19
2022-10-11T09:11:58.698Z,102634.94
2022-10-11T09:14:46.530Z,102623.88
2022-10-11T09:17:52.811Z,102629.88
2022-10-11T09:20:30.496Z,102625.75
2022-10-11T09:23:05.779Z,102632.53
2022-10-11T09:25:44.415Z,102621.88
2022-10-11T09:28:15.468Z,102633.25
2022-10-11T09:30:48.833Z,102636.28
2022-10-11T09:33:41.492Z,102635.69
2022-10-11T09:36:20.232Z,102637.75
2022-10-11T09:39:05.655Z,102633.56
2022-10-11T09:41:47.341Z,102631.13
2022-10-11T09:44:23.841Z,102634.88
2022-10-11T09:46:52.527Z,102638.59
2022-10-11T09:49:22.800Z,102643.34
2022-10-11T09:52:02.418Z,102638.72
2022-10-11T09:54:52.389Z,102633.69
2022-10-11T09:57:22.816Z,102631.94
2022-10-11T10:00:00.713Z,102628.91
2022-10-11T10:02:29.710Z,102622.97
2022-10-11T10:05:11.351Z,102620.59
2022-10-11T10:07:41.162Z,102608.00
2022-10-11T10:10:28.432Z,102619.00
2022-10-11T10:13:01.630Z,102611.13
2022-10-11T10:15:36.811Z,102612.31
2022-10-11T10:18:06.306Z,102612.97
2022-10-11T10:20:36.284Z,102603.56
2022-10-11T10:23:20.504Z,102604.25
2022-10-11T10:25:51.268Z,102610.75
2022-10-11T10:28:25.019Z,102617.03
2022-10-11T10:30:54.537Z,102614.31
2022-10-11T10:33:35.168Z,102623.75
2022-10-11T10:36:17.741Z,102601.22
2022-10-11T10:39:09.020Z,102600.00
2022-10-11T10:41:36.147Z,102596.47
2022-10-11T10:44:03.373Z,102594.09
2022-10-11T10:47:21.357Z,102599.50
2022-10-11T10:50:03.690Z,102601.88
2022-10-11T10:52:39.559Z,102591.97
2022-10-11T10:55:12.293Z,102595.31
2022-10-11T10:57:59.149Z,102599.78
2022-10-11T11:00:31.066Z,102588.31
2022-10-11T11:03:02.564Z,102596.78
2022-10-11T11:05:48.532Z,102586.19
2022-10-11T11:08:18.067Z,102589.25
2022-10-11T11:11:21.457Z,102584.25
2022-10-11T11:14:06.624Z,102588.56
2022-10-11T11:16:38.689Z,102582.59
2022-10-11T11:19:15.881Z,102576.28
2022-10-11T11:21:53.540Z,102577.69
2022-10-11T11:24:23.007Z,102580.06
2022-10-11T11:27:11.456Z,102564.88
2022-10-11T11:30:04.947Z,102565.22
2022-10-11T11:32:31.703Z,102569.06
2022-10-11T11:35:21.935Z,102560.97
2022-10-11T11:37:58.574Z,102548.75
2022-10-11T11:40:37.325Z,102556.81
2022-10-11T11:43:28.411Z,102555.56
2022-10-11T11:46:06.798Z,102549.09
2022-10-11T11:48:33.527Z,102555.19
2022-10-11T11:51:09.324Z,102548.81
2022-10-11T11:53:48.546Z,102553.59
2022-10-11T11:56:42.417Z,102557.75
2022-10-11T11:59:36.002Z,102552.84
2022-10-11T12:02:22.752Z,102554.63
2022-10-11T12:04:51.246Z,102562.41
2022-10-11T12:07:22.399Z,102555.91
2022-10-11T12:09:53.196Z,102557.16
2022-10-11T12:12:28.288Z,102558.38
2022-10-11T12:15:04.229Z,102558.03
2022-10-11T12:17:32.112Z,102550.16
2022-10-11T12:20:25.215Z,102553.22
2022-10-11T12:22:58.387Z,102559.84
2022-10-11T12:25:28.856Z,102545.41
2022-10-11T12:27:57.962Z,102542.81
2022-10-11T12:30:42.851Z,102534.22
2022-10-11T12:33:31.065Z,102538.66
2022-10-11T12:36:07.416Z,102534.47
2022-10-11T12:38:38.528Z,102529.25
2022-10-11T12:41:13.772Z,102526.44
2022-10-11T12:43:49.690Z,102521.31
2022-10-11T12:46:28.785Z,102516.16
2022-10-11T12:49:17.446Z,102511.16
2022-10-11T12:51:56.502Z,102508.63
2022-10-11T12:54:41.273Z,102509.66
2022-10-11T12:57:52.927Z,102510.25
2022-10-11T13:00:29.268Z,102504.94
2022-10-11T13:03:17.460Z,102494.09
2022-10-11T13:05:50.994Z,102500.88
2022-10-11T13:08:29.840Z,102482.03
2022-10-11T13:11:01.659Z,102485.53
2022-10-11T13:13:37.868Z,102487.38
2022-10-11T13:16:17.189Z,102480.00
2022-10-11T13:18:46.864Z,102473.69
2022-10-11T13:21:27.829Z,102476.94
2022-10-11T13:23:58.157Z,102475.50
2022-10-11T13:26:27.096Z,102466.03
2022-10-11T13:28:54.123Z,102461.63
2022-10-11T13:31:23.596Z,102446.91
2022-10-11T13:33:54.937Z,102438.69
2022-10-11T13:36:24.889Z,102445.59
2022-10-11T13:38:58.569Z,102447.81
2022-10-11T13:41:28.120Z,102438.97
2022-10-11T13:44:00.328Z,102435.31
2022-10-11T13:46:29.655Z,102436.59
2022-10-11T13:49:01.168Z,102438.50
2022-10-11T13:51:34.140Z,102440.03
2022-10-11T13:54:13.585Z,102433.84
2022-10-11T13:56:51.589Z,102430.44
2022-10-11T13:59:23.992Z,102434.88
2022-10-11T14:01:57.892Z,102426.63
2022-10-11T14:04:29.547Z,102430.41
2022-10-11T14:07:02.913Z,102426.03
2022-10-11T14:09:34.809Z,102419.66
2022-10-11T14:12:46.359Z,102419.47
2022-10-11T14:16:24.806Z,102422.03
2022-10-11T14:19:00.608Z,102412.63
2022-10-11T14:21:50.058Z,102401.69
2022-10-11T14:28:49.712Z,102390.69
2022-10-11T14:31:16.591Z,102390.00
2022-10-11T14:33:43.383Z,102382.09
2022-10-11T14:36:50.172Z,102383.19
2022-10-11T14:39:20.888Z,102373.06
2022-10-11T14:42:49.249Z,102366.88
2022-10-11T14:46:15.725Z,102357.91
2022-10-11T14:48:55.019Z,102352.50
2022-10-11T14:51:29.754Z,102352.16
2022-10-11T14:53:57.090Z,102349.56
2022-10-11T14:56:23.851Z,102338.81
2022-10-11T14:59:53.420Z,102339.38
2022-10-11T15:02:39.990Z,102336.22
2022-10-11T15:06:06.971Z,102328.50
2022-10-11T15:09:33.734Z,102322.38
2022-10-11T15:13:00.506Z,102309.38
2022-10-11T15:15:30.691Z,102312.25
2022-10-11T15:17:59.569Z,102306.44
2022-10-11T15:21:06.240Z,102304.16
2022-10-11T15:24:32.724Z,102288.22
2022-10-11T15:30:54.546Z,102287.59
2022-10-11T15:33:21.512Z,102283.97
2022-10-11T15:35:48.217Z,102283.78
2022-10-11T15:39:20.951Z,102279.25
2022-10-11T15:42:47.404Z,102285.72
2022-10-11T15:49:19.192Z,102259.97
2022-10-11T15:52:45.959Z,102262.72
2022-10-11T15:55:12.608Z,102261.03
2022-10-11T15:57:39.348Z,102255.88
2022-10-11T16:00:06.586Z,102256.19
2022-10-11T16:07:17.561Z,102243.16
2022-10-11T16:10:44.058Z,102242.44
2022-10-11T16:14:11.190Z,102235.44
2022-10-11T16:17:37.604Z,102243.97
2022-10-11T16:23:58.331Z,102231.44
2022-10-11T16:26:24.972Z,102223.22
2022-10-11T16:28:51.727Z,102227.97
2022-10-11T16:31:21.173Z,102219.25
2022-10-11T16:33:48.792Z,102216.50
2022-10-11T16:37:15.368Z,102220.44
2022-10-11T16:40:41.827Z,102209.09
2022-10-11T16:43:09.896Z,102207.38
2022-10-11T16:45:36.635Z,102209.44
2022-10-11T16:48:03.555Z,102209.59
2022-10-11T16:50:31.736Z,102215.22
2022-10-11T16:53:00.239Z,102211.78
2022-10-11T16:55:26.938Z,102208.38
2022-10-11T16:57:53.904Z,102209.00
2022-10-11T17:00:20.678Z,102210.00
2022-10-11T17:02:47.420Z,102204.69
2022-10-11T17:05:14.381Z,102209.31
2022-10-11T17:07:41.044Z,102208.75
2022-10-11T17:10:08.297Z,102208.09
2022-10-11T17:12:37.563Z,102202.63
2022-10-11T17:15:05.530Z,102196.28
2022-10-11T17:17:32.354Z,102190.09
2022-10-11T17:19:59.377Z,102196.91
2022-10-11T17:22:26.231Z,102193.34
2022-10-11T17:24:52.983Z,102189.03
2022-10-11T17:27:19.822Z,102188.03
2022-10-11T17:29:46.575Z,102179.25
2022-10-11T17:32:13.317Z,102174.13
2022-10-11T17:34:40.135Z,102178.19
2022-10-11T17:37:08.904Z,102174.75
2022-10-11T17:39:35.908Z,102169.59
2022-10-11T17:42:07.723Z,102163.59
2022-10-11T17:44:35.881Z,102170.09
2022-10-11T17:47:02.961Z,102170.25
2022-10-11T17:49:30.252Z,102167.84
2022-10-11T17:51:56.959Z,102158.91
2022-10-11T17:54:24.187Z,102164.84
2022-10-11T17:56:51.091Z,102154.22
2022-10-11T17:59:21.479Z,102166.19
2022-10-11T18:01:50.299Z,102163.78
2022-10-11T18:08:10.894Z,102173.31
2022-10-11T18:10:38.269Z,102160.66
2022-10-11T18:13:06.752Z,102173.47
2022-10-11T18:15:34.280Z,102170.19
2022-10-11T18:18:01.247Z,102172.84
2022-10-11T18:20:28.074Z,102164.22
2022-10-11T18:23:54.627Z,102165.19
2022-10-11T18:27:21.079Z,102162.69
2022-10-11T18:30:47.894Z,102156.75
2022-10-11T18:34:14.342Z,102165.69
2022-10-11T18:36:41.428Z,102162.28
2022-10-11T18:39:27.612Z,102161.44
2022-10-11T18:41:54.607Z,102152.19
2022-10-11T18:44:21.405Z,102152.19
2022-10-11T18:46:48.517Z,102156.66
2022-10-11T18:49:15.403Z,102153.06
2022-10-11T18:51:42.882Z,102149.31
2022-10-11T18:54:14.014Z,102144.00
2022-10-11T19:01:34.642Z,102145.88
2022-10-11T19:05:01.123Z,102146.72
2022-10-11T19:12:20.034Z,102136.13
2022-10-11T19:15:46.574Z,102136.28
2022-10-11T19:19:13.166Z,102132.88
2022-10-11T19:21:40.426Z,102132.88
2022-10-11T19:24:07.687Z,102123.78
2022-10-11T19:27:37.685Z,102117.47
2022-10-11T19:31:04.824Z,102110.28
2022-10-11T19:34:31.820Z,102117.47
2022-10-11T19:37:00.920Z,102112.03
2022-10-11T19:40:29.145Z,102107.41
2022-10-11T19:43:58.120Z,102103.97
2022-10-11T19:47:24.825Z,102096.78
2022-10-11T19:54:34.712Z,102095.38
2022-10-11T19:57:01.600Z,102094.66
2022-10-11T20:00:28.351Z,102096.88
2022-10-11T20:03:54.833Z,102089.00
2022-10-11T20:07:21.480Z,102089.16
2022-10-11T20:14:30.942Z,102091.31
2022-10-11T20:18:09.193Z,102089.44
2022-10-11T20:25:27.582Z,102080.22
2022-10-11T20:28:56.089Z,102074.78
2022-10-11T20:36:15.106Z,102067.91
2022-10-11T20:39:41.766Z,102054.41
2022-10-11T22:35:48.302Z,101945.50
2022-10-11T22:38:17.955Z,101948.06
2022-10-11T22:40:45.091Z,101946.34
2022-10-11T22:43:20.458Z,101939.69
2022-10-11T22:45:47.101Z,101940.53
2022-10-11T22:48:13.860Z,101934.06
2022-10-11T22:50:41.351Z,101934.91
2022-10-11T22:53:08.964Z,101926.72
2022-10-11T22:55:36.012Z,101927.94
2022-10-11T22:58:02.952Z,101924.16
2022-10-11T23:05:11.921Z,101912.53
2022-10-11T23:07:38.842Z,101914.56
2022-10-11T23:10:06.625Z,101904.97
2022-10-11T23:12:34.085Z,101891.66
2022-10-11T23:15:00.874Z,101894.72
2022-10-11T23:18:27.753Z,101879.66
2022-10-11T23:20:54.507Z,101889.34
2022-10-11T23:23:21.289Z,101887.63
2022-10-11T23:25:48.644Z,101884.22
2022-10-11T23:28:17.764Z,101876.19
2022-10-11T23:30:44.543Z,101867.28
2022-10-11T23:33:11.493Z,101872.75
2022-10-11T23:36:38.088Z,101864.53
2022-10-11T23:39:41.879Z,101855.34
2022-10-11T23:42:08.632Z,101862.81
2022-10-11T23:44:35.302Z,101845.44
2022-10-11T23:48:01.881Z,101836.56
2022-10-11T23:51:28.502Z,101825.94
2022-10-11T23:53:55.377Z,101822.53
2022-10-11T23:56:22.613Z,101817.91
2022-10-11T23:58:49.350Z,101814.50
